sensor_id;sensor_type;location;lat;lon;timestamp;pressure;altitude;pressure_sealevel;temperature;humidity
59116;BME280;53564;51.930;4.640;2022-08-19T00:00:43;101500.28;;;19.70;71.45
59116;BME280;53564;51.930;4.640;2022-08-19T00:03:08;101497.31;;;19.74;71.58
59116;BME280;53564;51.930;4.640;2022-08-19T00:05:33;101506.69;;;19.67;71.54
59116;BME280;53564;51.930;4.640;2022-08-19T00:07:59;101508.41;;;19.68;71.44
59116;BME280;53564;51.930;4.640;2022-08-19T00:10:24;101504.06;;;19.66;71.53
59116;BME280;53564;51.930;4.640;2022-08-19T00:12:50;101498.44;;;19.70;71.46
59116;BME280;53564;51.930;4.640;2022-08-19T00:15:18;101506.34;;;19.73;71.65
59116;BME280;53564;51.930;4.640;2022-08-19T00:17:44;101502.78;;;19.73;71.42
59116;BME280;53564;51.930;4.640;2022-08-19T00:20:12;101511.53;;;19.61;71.80
59116;BME280;53564;51.930;4.640;2022-08-19T00:22:38;101510.34;;;19.66;71.86
59116;BME280;53564;51.930;4.640;2022-08-19T00:25:05;101515.72;;;19.66;71.48
59116;BME280;53564;51.930;4.640;2022-08-19T00:27:31;101509.72;;;19.61;71.92
59116;BME280;53564;51.930;4.640;2022-08-19T00:29:56;101502.00;;;19.55;71.84
59116;BME280;53564;51.930;4.640;2022-08-19T00:32:23;101495.03;;;19.51;71.56
59116;BME280;53564;51.930;4.640;2022-08-19T00:34:49;101496.78;;;19.52;71.75
59116;BME280;53564;51.930;4.640;2022-08-19T00:37:15;101495.84;;;19.53;71.86
59116;BME280;53564;51.930;4.640;2022-08-19T00:39:41;101491.03;;;19.42;71.75
59116;BME280;53564;51.930;4.640;2022-08-19T00:42:06;101495.00;;;19.19;74.95
59116;BME280;53564;51.930;4.640;2022-08-19T00:44:31;101487.56;;;19.24;73.71
59116;BME280;53564;51.930;4.640;2022-08-19T00:46:58;101494.16;;;19.34;72.63
59116;BME280;53564;51.930;4.640;2022-08-19T00:49:39;101497.41;;;18.90;75.40
59116;BME280;53564;51.930;4.640;2022-08-19T00:52:09;101500.53;;;19.16;73.45
59116;BME280;53564;51.930;4.640;2022-08-19T00:54:38;101504.91;;;19.34;72.73
59116;BME280;53564;51.930;4.640;2022-08-19T00:57:06;101492.03;;;19.41;72.33
59116;BME280;53564;51.930;4.640;2022-08-19T00:59:35;101500.09;;;19.41;71.94
59116;BME280;53564;51.930;4.640;2022-08-19T01:02:03;101498.69;;;19.34;71.77
59116;BME280;53564;51.930;4.640;2022-08-19T01:04:28;101501.47;;;19.15;74.87
59116;BME280;53564;51.930;4.640;2022-08-19T01:06:53;101501.69;;;18.94;75.28
59116;BME280;53564;51.930;4.640;2022-08-19T01:09:20;101510.06;;;19.05;73.96
59116;BME280;53564;51.930;4.640;2022-08-19T01:11:45;101504.72;;;19.21;72.85
59116;BME280;53564;51.930;4.640;2022-08-19T01:14:11;101510.97;;;19.22;73.02
59116;BME280;53564;51.930;4.640;2022-08-19T01:16:38;101510.59;;;19.12;73.13
59116;BME280;53564;51.930;4.640;2022-08-19T01:19:13;101494.88;;;18.87;75.18
59116;BME280;53564;51.930;4.640;2022-08-19T01:21:47;101508.31;;;19.04;73.53
59116;BME280;53564;51.930;4.640;2022-08-19T01:24:16;101499.16;;;19.08;72.93
59116;BME280;53564;51.930;4.640;2022-08-19T01:26:42;101496.28;;;19.12;72.60
59116;BME280;53564;51.930;4.640;2022-08-19T01:29:10;101503.16;;;19.17;72.63
59116;BME280;53564;51.930;4.640;2022-08-19T01:31:35;101502.59;;;19.10;73.04
59116;BME280;53564;51.930;4.640;2022-08-19T01:34:02;101502.78;;;19.07;72.38
59116;BME280;53564;51.930;4.640;2022-08-19T01:36:31;101499.22;;;19.07;72.28
59116;BME280;53564;51.930;4.640;2022-08-19T01:38:57;101508.50;;;19.01;72.38
59116;BME280;53564;51.930;4.640;2022-08-19T01:41:23;101512.03;;;19.02;72.48
59116;BME280;53564;51.930;4.640;2022-08-19T01:43:49;101506.75;;;19.00;72.49
59116;BME280;53564;51.930;4.640;2022-08-19T01:46:15;101501.38;;;19.00;72.29
59116;BME280;53564;51.930;4.640;2022-08-19T01:48:42;101510.56;;;18.96;72.80
59116;BME280;53564;51.930;4.640;2022-08-19T01:51:09;101515.75;;;18.99;72.99
59116;BME280;53564;51.930;4.640;2022-08-19T01:53:35;101516.00;;;18.94;72.73
59116;BME280;53564;51.930;4.640;2022-08-19T01:56:01;101506.75;;;19.00;72.41
59116;BME280;53564;51.930;4.640;2022-08-19T01:58:30;101511.88;;;19.05;72.16
59116;BME280;53564;51.930;4.640;2022-08-19T02:00:58;101504.22;;;18.97;72.18
59116;BME280;53564;51.930;4.640;2022-08-19T02:03:23;101503.97;;;19.02;72.16
59116;BME280;53564;51.930;4.640;2022-08-19T02:05:55;101503.81;;;19.05;71.84
59116;BME280;53564;51.930;4.640;2022-08-19T02:08:20;101497.88;;;18.98;71.87
59116;BME280;53564;51.930;4.640;2022-08-19T02:10:46;101512.13;;;19.00;72.01
59116;BME280;53564;51.930;4.640;2022-08-19T02:13:12;101510.38;;;18.99;72.18
59116;BME280;53564;51.930;4.640;2022-08-19T02:15:38;101510.69;;;18.93;72.35
59116;BME280;53564;51.930;4.640;2022-08-19T02:18:04;101505.31;;;18.93;72.32
59116;BME280;53564;51.930;4.640;2022-08-19T02:20:29;101501.69;;;18.94;72.29
59116;BME280;53564;51.930;4.640;2022-08-19T02:22:54;101503.59;;;18.92;72.01
59116;BME280;53564;51.930;4.640;2022-08-19T02:25:19;101501.59;;;18.78;72.76
59116;BME280;53564;51.930;4.640;2022-08-19T02:27:45;101500.88;;;18.74;72.77
59116;BME280;53564;51.930;4.640;2022-08-19T02:30:13;101505.78;;;18.84;72.58
59116;BME280;53564;51.930;4.640;2022-08-19T02:32:38;101505.31;;;18.75;72.67
59116;BME280;53564;51.930;4.640;2022-08-19T02:35:04;101505.78;;;18.84;72.57
59116;BME280;53564;51.930;4.640;2022-08-19T02:37:30;101506.84;;;18.64;73.38
59116;BME280;53564;51.930;4.640;2022-08-19T02:40:14;101493.78;;;18.73;73.52
59116;BME280;53564;51.930;4.640;2022-08-19T02:42:40;101484.44;;;18.81;72.54
59116;BME280;53564;51.930;4.640;2022-08-19T02:45:06;101494.56;;;18.75;73.05
59116;BME280;53564;51.930;4.640;2022-08-19T02:47:33;101487.31;;;18.77;73.31
59116;BME280;53564;51.930;4.640;2022-08-19T02:50:01;101488.25;;;18.76;73.01
59116;BME280;53564;51.930;4.640;2022-08-19T02:52:26;101484.22;;;18.85;72.63
59116;BME280;53564;51.930;4.640;2022-08-19T02:54:52;101485.09;;;18.68;73.25
59116;BME280;53564;51.930;4.640;2022-08-19T02:57:17;101481.31;;;18.72;72.92
59116;BME280;53564;51.930;4.640;2022-08-19T02:59:43;101488.56;;;18.70;72.74
59116;BME280;53564;51.930;4.640;2022-08-19T03:02:08;101483.19;;;18.70;72.99
59116;BME280;53564;51.930;4.640;2022-08-19T03:04:33;101483.69;;;18.61;74.03
59116;BME280;53564;51.930;4.640;2022-08-19T03:06:59;101482.50;;;18.67;73.13
59116;BME280;53564;51.930;4.640;2022-08-19T03:09:24;101484.97;;;18.54;75.40
59116;BME280;53564;51.930;4.640;2022-08-19T03:11:49;101468.44;;;18.61;74.02
59116;BME280;53564;51.930;4.640;2022-08-19T03:14:15;101474.34;;;18.68;73.59
59116;BME280;53564;51.930;4.640;2022-08-19T03:16:47;101470.88;;;18.66;74.05
59116;BME280;53564;51.930;4.640;2022-08-19T03:19:16;101472.59;;;18.67;72.80
59116;BME280;53564;51.930;4.640;2022-08-19T03:21:42;101465.88;;;18.76;73.77
59116;BME280;53564;51.930;4.640;2022-08-19T03:24:10;101463.91;;;18.62;73.13
59116;BME280;53564;51.930;4.640;2022-08-19T03:26:39;101462.88;;;18.65;72.65
59116;BME280;53564;51.930;4.640;2022-08-19T03:29:05;101469.78;;;18.53;74.59
59116;BME280;53564;51.930;4.640;2022-08-19T03:31:30;101453.81;;;18.50;74.45
59116;BME280;53564;51.930;4.640;2022-08-19T03:33:56;101455.88;;;18.44;76.02
59116;BME280;53564;51.930;4.640;2022-08-19T03:36:24;101458.72;;;18.41;74.76
59116;BME280;53564;51.930;4.640;2022-08-19T03:38:53;101453.19;;;18.62;73.37
59116;BME280;53564;51.930;4.640;2022-08-19T03:41:35;101458.56;;;18.62;73.13
59116;BME280;53564;51.930;4.640;2022-08-19T03:44:03;101454.31;;;18.40;75.26
59116;BME280;53564;51.930;4.640;2022-08-19T03:46:32;101474.84;;;18.24;75.97
59116;BME280;53564;51.930;4.640;2022-08-19T03:48:59;101471.66;;;18.33;75.02
59116;BME280;53564;51.930;4.640;2022-08-19T03:51:28;101475.28;;;18.50;73.96
59116;BME280;53564;51.930;4.640;2022-08-19T03:53:54;101478.66;;;18.55;76.22
59116;BME280;53564;51.930;4.640;2022-08-19T03:56:21;101463.91;;;18.62;73.60
59116;BME280;53564;51.930;4.640;2022-08-19T03:58:47;101475.88;;;18.56;73.83
59116;BME280;53564;51.930;4.640;2022-08-19T04:01:15;101479.91;;;18.65;74.61
59116;BME280;53564;51.930;4.640;2022-08-19T04:03:43;101482.28;;;18.36;76.03
59116;BME280;53564;51.930;4.640;2022-08-19T04:06:14;101485.88;;;18.18;77.73
59116;BME280;53564;51.930;4.640;2022-08-19T04:08:41;101485.59;;;18.59;74.59
59116;BME280;53564;51.930;4.640;2022-08-19T04:11:09;101477.03;;;18.51;74.74
59116;BME280;53564;51.930;4.640;2022-08-19T04:13:35;101488.06;;;18.09;77.53
59116;BME280;53564;51.930;4.640;2022-08-19T04:16:00;101481.78;;;18.45;74.92
59116;BME280;53564;51.930;4.640;2022-08-19T04:18:25;101486.75;;;18.53;74.74
59116;BME280;53564;51.930;4.640;2022-08-19T04:20:51;101490.88;;;18.43;75.38
59116;BME280;53564;51.930;4.640;2022-08-19T04:23:16;101485.00;;;18.17;79.45
59116;BME280;53564;51.930;4.640;2022-08-19T04:25:44;101489.63;;;18.13;78.00
59116;BME280;53564;51.930;4.640;2022-08-19T04:28:11;101490.63;;;18.30;79.17
59116;BME280;53564;51.930;4.640;2022-08-19T04:30:38;101493.28;;;18.12;79.95
59116;BME280;53564;51.930;4.640;2022-08-19T04:33:04;101481.94;;;18.25;77.17
59116;BME280;53564;51.930;4.640;2022-08-19T04:35:35;101491.25;;;18.18;79.11
59116;BME280;53564;51.930;4.640;2022-08-19T04:38:01;101471.34;;;18.57;74.75
59116;BME280;53564;51.930;4.640;2022-08-19T04:40:26;101483.34;;;18.50;75.46
59116;BME280;53564;51.930;4.640;2022-08-19T04:43:10;101494.72;;;18.37;75.78
59116;BME280;53564;51.930;4.640;2022-08-19T04:45:37;101494.41;;;18.26;79.78
59116;BME280;53564;51.930;4.640;2022-08-19T04:48:02;101484.00;;;18.55;75.83
59116;BME280;53564;51.930;4.640;2022-08-19T04:50:28;101490.00;;;18.42;76.49
59116;BME280;53564;51.930;4.640;2022-08-19T04:52:54;101503.28;;;18.63;75.15
59116;BME280;53564;51.930;4.640;2022-08-19T04:55:20;101489.38;;;18.55;78.91
59116;BME280;53564;51.930;4.640;2022-08-19T04:57:45;101497.13;;;18.61;75.20
59116;BME280;53564;51.930;4.640;2022-08-19T05:00:11;101493.72;;;18.57;75.64
59116;BME280;53564;51.930;4.640;2022-08-19T05:02:37;101494.97;;;18.50;76.33
59116;BME280;53564;51.930;4.640;2022-08-19T05:05:03;101499.94;;;18.58;75.31
59116;BME280;53564;51.930;4.640;2022-08-19T05:07:28;101506.56;;;18.68;74.85
59116;BME280;53564;51.930;4.640;2022-08-19T05:09:54;101501.22;;;18.68;75.65
59116;BME280;53564;51.930;4.640;2022-08-19T05:12:20;101500.56;;;18.81;74.54
59116;BME280;53564;51.930;4.640;2022-08-19T05:14:46;101495.84;;;18.51;76.98
59116;BME280;53564;51.930;4.640;2022-08-19T05:17:12;101491.88;;;18.75;75.91
59116;BME280;53564;51.930;4.640;2022-08-19T05:19:38;101502.94;;;18.34;78.15
59116;BME280;53564;51.930;4.640;2022-08-19T05:22:21;101489.28;;;18.74;79.07
59116;BME280;53564;51.930;4.640;2022-08-19T05:25:08;101501.69;;;18.59;77.70
59116;BME280;53564;51.930;4.640;2022-08-19T05:27:33;101495.38;;;18.77;76.14
59116;BME280;53564;51.930;4.640;2022-08-19T05:29:59;101493.84;;;18.89;75.06
59116;BME280;53564;51.930;4.640;2022-08-19T05:32:26;101490.78;;;18.62;79.24
59116;BME280;53564;51.930;4.640;2022-08-19T05:34:52;101489.09;;;18.77;76.20
59116;BME280;53564;51.930;4.640;2022-08-19T05:37:17;101485.38;;;18.80;77.37
59116;BME280;53564;51.930;4.640;2022-08-19T05:39:43;101495.19;;;18.81;76.28
59116;BME280;53564;51.930;4.640;2022-08-19T05:42:10;101498.69;;;18.83;76.23
59116;BME280;53564;51.930;4.640;2022-08-19T05:44:39;101497.88;;;18.98;75.04
59116;BME280;53564;51.930;4.640;2022-08-19T05:47:08;101495.34;;;19.13;75.22
59116;BME280;53564;51.930;4.640;2022-08-19T05:49:34;101498.47;;;19.21;75.01
59116;BME280;53564;51.930;4.640;2022-08-19T05:52:02;101492.03;;;19.07;74.55
59116;BME280;53564;51.930;4.640;2022-08-19T05:54:29;101492.03;;;19.07;74.84
59116;BME280;53564;51.930;4.640;2022-08-19T05:56:55;101494.66;;;18.91;75.74
59116;BME280;53564;51.930;4.640;2022-08-19T05:59:20;101486.47;;;19.10;75.14
59116;BME280;53564;51.930;4.640;2022-08-19T06:01:47;101493.88;;;19.23;74.18
59116;BME280;53564;51.930;4.640;2022-08-19T06:04:16;101498.47;;;19.21;74.94
59116;BME280;53564;51.930;4.640;2022-08-19T06:06:44;101494.50;;;19.28;73.71
59116;BME280;53564;51.930;4.640;2022-08-19T06:09:09;101491.38;;;19.36;74.67
59116;BME280;53564;51.930;4.640;2022-08-19T06:11:39;101500.38;;;19.19;74.68
59116;BME280;53564;51.930;4.640;2022-08-19T06:14:08;101497.59;;;19.20;74.62
59116;BME280;53564;51.930;4.640;2022-08-19T06:16:36;101496.56;;;19.23;75.04
59116;BME280;53564;51.930;4.640;2022-08-19T06:19:05;101493.78;;;19.24;74.71
59116;BME280;53564;51.930;4.640;2022-08-19T06:21:32;101495.00;;;19.19;74.94
59116;BME280;53564;51.930;4.640;2022-08-19T06:23:59;101499.38;;;19.37;73.06
59116;BME280;53564;51.930;4.640;2022-08-19T06:26:24;101500.75;;;19.29;76.96
59116;BME280;53564;51.930;4.640;2022-08-19T06:28:50;101498.78;;;19.32;75.16
59116;BME280;53564;51.930;4.640;2022-08-19T06:31:17;101507.34;;;19.39;77.88
59116;BME280;53564;51.930;4.640;2022-08-19T06:33:44;101498.13;;;19.27;74.73
59116;BME280;53564;51.930;4.640;2022-08-19T06:36:25;101498.84;;;19.31;77.08
59116;BME280;53564;51.930;4.640;2022-08-19T06:38:57;101498.19;;;19.59;75.11
59116;BME280;53564;51.930;4.640;2022-08-19T06:41:26;101499.38;;;19.69;75.17
59116;BME280;53564;51.930;4.640;2022-08-19T06:43:52;101488.00;;;19.32;75.57
59116;BME280;53564;51.930;4.640;2022-08-19T06:46:18;101488.28;;;19.75;75.58
59116;BME280;53564;51.930;4.640;2022-08-19T06:48:45;101493.91;;;19.39;76.52
59116;BME280;53564;51.930;4.640;2022-08-19T06:51:10;101496.63;;;19.55;74.04
59116;BME280;53564;51.930;4.640;2022-08-19T06:53:36;101495.22;;;19.48;74.71
59116;BME280;53564;51.930;4.640;2022-08-19T06:56:01;101498.88;;;19.63;74.36
59116;BME280;53564;51.930;4.640;2022-08-19T06:58:30;101499.75;;;19.63;75.95
59116;BME280;53564;51.930;4.640;2022-08-19T07:00:58;101505.13;;;19.63;74.63
59116;BME280;53564;51.930;4.640;2022-08-19T07:03:28;101504.00;;;19.51;76.52
59116;BME280;53564;51.930;4.640;2022-08-19T07:05:54;101513.63;;;19.71;75.22
59116;BME280;53564;51.930;4.640;2022-08-19T07:08:19;101519.13;;;19.70;75.80
59116;BME280;53564;51.930;4.640;2022-08-19T07:10:45;101527.00;;;19.73;75.32
59116;BME280;53564;51.930;4.640;2022-08-19T07:13:10;101519.91;;;19.88;77.44
59116;BME280;53564;51.930;4.640;2022-08-19T07:15:36;101528.56;;;19.77;79.13
59116;BME280;53564;51.930;4.640;2022-08-19T07:18:02;101525.19;;;19.89;74.77
59116;BME280;53564;51.930;4.640;2022-08-19T07:20:28;101522.09;;;19.97;76.03
59116;BME280;53564;51.930;4.640;2022-08-19T07:22:53;101526.00;;;20.08;78.99
59116;BME280;53564;51.930;4.640;2022-08-19T07:25:18;101518.00;;;19.90;78.01
59116;BME280;53564;51.930;4.640;2022-08-19T07:27:48;101518.38;;;19.84;78.85
59116;BME280;53564;51.930;4.640;2022-08-19T07:30:16;101517.97;;;20.22;76.50
59116;BME280;53564;51.930;4.640;2022-08-19T07:32:42;101516.25;;;20.21;76.00
59116;BME280;53564;51.930;4.640;2022-08-19T07:35:08;101519.91;;;20.20;76.33
59116;BME280;53564;51.930;4.640;2022-08-19T07:37:46;101521.41;;;20.40;77.76
59116;BME280;53564;51.930;4.640;2022-08-19T07:40:11;101526.91;;;20.38;78.16
59116;BME280;53564;51.930;4.640;2022-08-19T07:42:37;101524.72;;;20.29;77.20
59116;BME280;53564;51.930;4.640;2022-08-19T07:45:03;101519.06;;;20.64;77.02
59116;BME280;53564;51.930;4.640;2022-08-19T07:47:29;101516.09;;;20.69;77.77
59116;BME280;53564;51.930;4.640;2022-08-19T07:49:55;101516.38;;;20.64;77.50
59116;BME280;53564;51.930;4.640;2022-08-19T07:52:21;101527.22;;;20.79;75.78
59116;BME280;53564;51.930;4.640;2022-08-19T07:54:46;101530.31;;;20.87;76.64
59116;BME280;53564;51.930;4.640;2022-08-19T07:57:12;101529.66;;;20.83;77.19
59116;BME280;53564;51.930;4.640;2022-08-19T07:59:37;101527.84;;;20.98;76.34
59116;BME280;53564;51.930;4.640;2022-08-19T08:02:04;101541.28;;;20.84;73.67
59116;BME280;53564;51.930;4.640;2022-08-19T08:04:30;101553.16;;;20.65;75.48
59116;BME280;53564;51.930;4.640;2022-08-19T08:07:15;101550.06;;;20.87;76.82
59116;BME280;53564;51.930;4.640;2022-08-19T08:09:59;101548.22;;;20.88;74.34
59116;BME280;53564;51.930;4.640;2022-08-19T08:12:30;101557.34;;;20.71;73.80
59116;BME280;53564;51.930;4.640;2022-08-19T08:14:59;101551.88;;;20.87;76.95
59116;BME280;53564;51.930;4.640;2022-08-19T08:17:27;101545.34;;;20.91;72.96
59116;BME280;53564;51.930;4.640;2022-08-19T08:19:53;101549.63;;;21.10;73.45
59116;BME280;53564;51.930;4.640;2022-08-19T08:22:21;101549.81;;;21.21;73.54
59116;BME280;53564;51.930;4.640;2022-08-19T08:25:06;101554.91;;;21.26;71.33
59116;BME280;53564;51.930;4.640;2022-08-19T08:27:36;101553.78;;;21.30;70.21
59116;BME280;53564;51.930;4.640;2022-08-19T08:30:03;101558.56;;;21.10;72.09
59116;BME280;53564;51.930;4.640;2022-08-19T08:32:29;101552.03;;;21.29;70.17
59116;BME280;53564;51.930;4.640;2022-08-19T08:34:55;101556.44;;;21.15;71.33
59116;BME280;53564;51.930;4.640;2022-08-19T08:37:23;101550.88;;;21.47;72.00
59116;BME280;53564;51.930;4.640;2022-08-19T08:39:49;101568.31;;;21.27;75.18
59116;BME280;53564;51.930;4.640;2022-08-19T08:42:25;101569.84;;;21.31;71.89
59116;BME280;53564;51.930;4.640;2022-08-19T08:44:59;101568.16;;;21.59;71.76
59116;BME280;53564;51.930;4.640;2022-08-19T08:47:26;101561.41;;;21.66;70.14
59116;BME280;53564;51.930;4.640;2022-08-19T08:49:58;101562.75;;;21.74;70.92
59116;BME280;53564;51.930;4.640;2022-08-19T08:52:27;101559.16;;;21.73;69.61
59116;BME280;53564;51.930;4.640;2022-08-19T08:54:55;101563.88;;;21.55;75.21
59116;BME280;53564;51.930;4.640;2022-08-19T08:57:30;101562.75;;;21.59;75.79
59116;BME280;53564;51.930;4.640;2022-08-19T09:00:00;101566.97;;;21.78;74.98
59116;BME280;53564;51.930;4.640;2022-08-19T09:02:28;101574.59;;;22.13;75.00
59116;BME280;53564;51.930;4.640;2022-08-19T09:04:54;101559.47;;;22.52;74.29
59116;BME280;53564;51.930;4.640;2022-08-19T09:07:42;101562.91;;;22.54;73.87
59116;BME280;53564;51.930;4.640;2022-08-19T09:10:31;101563.22;;;22.90;70.96
59116;BME280;53564;51.930;4.640;2022-08-19T09:13:27;101572.69;;;22.70;70.68
59116;BME280;53564;51.930;4.640;2022-08-19T09:16:05;101571.16;;;22.65;72.78
59116;BME280;53564;51.930;4.640;2022-08-19T09:18:44;101564.53;;;23.10;71.61
59116;BME280;53564;51.930;4.640;2022-08-19T09:21:12;101566.59;;;23.19;71.99
59116;BME280;53564;51.930;4.640;2022-08-19T09:23:38;101563.22;;;22.90;72.04
59116;BME280;53564;51.930;4.640;2022-08-19T09:26:11;101567.78;;;23.02;71.21
59116;BME280;53564;51.930;4.640;2022-08-19T09:28:39;101560.66;;;23.40;70.44
59116;BME280;53564;51.930;4.640;2022-08-19T09:31:07;101565.09;;;23.41;70.25
59116;BME280;53564;51.930;4.640;2022-08-19T09:33:32;101558.03;;;23.51;69.57
59116;BME280;53564;51.930;4.640;2022-08-19T09:36:03;101559.97;;;23.49;70.54
59116;BME280;53564;51.930;4.640;2022-08-19T09:38:28;101562.81;;;23.35;69.50
59116;BME280;53564;51.930;4.640;2022-08-19T09:40:53;101570.16;;;23.45;69.82
59116;BME280;53564;51.930;4.640;2022-08-19T09:43:19;101560.94;;;22.96;70.18
59116;BME280;53564;51.930;4.640;2022-08-19T09:45:44;101569.28;;;22.93;71.15
59116;BME280;53564;51.930;4.640;2022-08-19T09:48:09;101557.81;;;23.03;70.85
59116;BME280;53564;51.930;4.640;2022-08-19T09:50:35;101563.63;;;23.09;71.27
59116;BME280;53564;51.930;4.640;2022-08-19T09:53:03;101561.31;;;23.18;70.36
59116;BME280;53564;51.930;4.640;2022-08-19T09:55:30;101571.63;;;22.85;70.55
59116;BME280;53564;51.930;4.640;2022-08-19T09:57:55;101557.59;;;23.06;70.47
59116;BME280;53564;51.930;4.640;2022-08-19T10:00:21;101578.53;;;22.76;73.32
59116;BME280;53564;51.930;4.640;2022-08-19T10:02:46;101559.00;;;22.99;71.74
59116;BME280;53564;51.930;4.640;2022-08-19T10:05:11;101561.59;;;23.00;73.47
59116;BME280;53564;51.930;4.640;2022-08-19T10:07:55;101566.09;;;23.27;70.46
59116;BME280;53564;51.930;4.640;2022-08-19T10:10:20;101574.84;;;23.18;69.67
59116;BME280;53564;51.930;4.640;2022-08-19T10:12:45;101566.16;;;23.25;70.81
59116;BME280;53564;51.930;4.640;2022-08-19T10:15:12;101568.84;;;23.00;72.60
59116;BME280;53564;51.930;4.640;2022-08-19T10:17:38;101570.34;;;23.04;72.17
59116;BME280;53564;51.930;4.640;2022-08-19T10:20:04;101560.75;;;23.00;71.52
59116;BME280;53564;51.930;4.640;2022-08-19T10:22:29;101558.28;;;23.22;70.77
59116;BME280;53564;51.930;4.640;2022-08-19T10:24:54;101561.28;;;23.05;71.29
59116;BME280;53564;51.930;4.640;2022-08-19T10:27:20;101558.78;;;23.02;71.98
59116;BME280;53564;51.930;4.640;2022-08-19T10:29:45;101557.41;;;23.35;71.10
59116;BME280;53564;51.930;4.640;2022-08-19T10:32:12;101556.53;;;23.34;70.47
59116;BME280;53564;51.930;4.640;2022-08-19T10:34:38;101558.47;;;23.45;70.13
59116;BME280;53564;51.930;4.640;2022-08-19T10:37:04;101562.81;;;23.35;70.27
59116;BME280;53564;51.930;4.640;2022-08-19T10:39:32;101556.84;;;23.42;70.34
59116;BME280;53564;51.930;4.640;2022-08-19T10:41:57;101560.84;;;23.37;69.68
59116;BME280;53564;51.930;4.640;2022-08-19T10:44:23;101563.88;;;23.45;70.00
59116;BME280;53564;51.930;4.640;2022-08-19T10:46:49;101561.16;;;23.71;69.06
59116;BME280;53564;51.930;4.640;2022-08-19T10:49:15;101541.44;;;23.69;67.62
59116;BME280;53564;51.930;4.640;2022-08-19T10:51:40;101548.44;;;23.97;66.99
59116;BME280;53564;51.930;4.640;2022-08-19T10:54:26;101554.94;;;24.43;65.54
59116;BME280;53564;51.930;4.640;2022-08-19T10:59:37;101554.94;;;23.95;65.98
59116;BME280;53564;51.930;4.640;2022-08-19T11:02:05;101555.38;;;23.88;66.24
59116;BME280;53564;51.930;4.640;2022-08-19T11:04:30;101553.03;;;23.71;66.15
59116;BME280;53564;51.930;4.640;2022-08-19T11:06:56;101551.16;;;24.21;65.49
59116;BME280;53564;51.930;4.640;2022-08-19T11:09:24;101555.38;;;23.88;65.95
59116;BME280;53564;51.930;4.640;2022-08-19T11:11:50;101539.13;;;23.88;66.17
59116;BME280;53564;51.930;4.640;2022-08-19T11:14:17;101555.19;;;23.66;67.06
59116;BME280;53564;51.930;4.640;2022-08-19T11:16:47;101554.66;;;23.60;67.21
59116;BME280;53564;51.930;4.640;2022-08-19T11:19:12;101554.38;;;23.52;68.45
59116;BME280;53564;51.930;4.640;2022-08-19T11:21:41;101564.22;;;23.53;68.27
59116;BME280;53564;51.930;4.640;2022-08-19T11:24:10;101568.88;;;23.38;68.75
59116;BME280;53564;51.930;4.640;2022-08-19T11:26:37;101569.41;;;23.56;68.06
59116;BME280;53564;51.930;4.640;2022-08-19T11:29:03;101570.06;;;23.47;68.61
59116;BME280;53564;51.930;4.640;2022-08-19T11:31:31;101563.88;;;23.71;67.94
59116;BME280;53564;51.930;4.640;2022-08-19T11:34:01;101559.69;;;23.78;67.11
59116;BME280;53564;51.930;4.640;2022-08-19T11:36:28;101557.75;;;23.80;66.85
59116;BME280;53564;51.930;4.640;2022-08-19T11:38:54;101556.44;;;23.99;66.22
59116;BME280;53564;51.930;4.640;2022-08-19T11:41:21;101552.75;;;23.87;66.57
59116;BME280;53564;51.930;4.640;2022-08-19T11:43:49;101548.16;;;23.76;67.15
59116;BME280;53564;51.930;4.640;2022-08-19T11:46:16;101546.97;;;23.54;67.35
59116;BME280;53564;51.930;4.640;2022-08-19T11:48:42;101556.53;;;23.47;67.47
59116;BME280;53564;51.930;4.640;2022-08-19T11:51:15;101553.03;;;23.71;66.82
59116;BME280;53564;51.930;4.640;2022-08-19T11:53:42;101560.16;;;23.72;66.78
59116;BME280;53564;51.930;4.640;2022-08-19T11:56:08;101567.81;;;23.41;68.67
59116;BME280;53564;51.930;4.640;2022-08-19T11:58:34;101565.00;;;23.29;69.72
59116;BME280;53564;51.930;4.640;2022-08-19T12:01:00;101568.44;;;23.44;69.17
59116;BME280;53564;51.930;4.640;2022-08-19T12:03:26;101568.28;;;23.72;68.31
59116;BME280;53564;51.930;4.640;2022-08-19T12:05:53;101570.66;;;22.86;75.76
59116;BME280;53564;51.930;4.640;2022-08-19T12:08:18;101569.16;;;22.82;76.81
59116;BME280;53564;51.930;4.640;2022-08-19T12:10:44;101565.19;;;23.26;71.91
59116;BME280;53564;51.930;4.640;2022-08-19T12:13:11;101573.25;;;23.01;75.15
59116;BME280;53564;51.930;4.640;2022-08-19T12:15:40;101572.53;;;23.11;72.35
59116;BME280;53564;51.930;4.640;2022-08-19T12:18:07;101571.47;;;23.40;69.04
59116;BME280;53564;51.930;4.640;2022-08-19T12:20:39;101565.63;;;23.46;68.77
59116;BME280;53564;51.930;4.640;2022-08-19T12:23:05;101561.88;;;22.70;74.65
59116;BME280;53564;51.930;4.640;2022-08-19T12:25:31;101561.16;;;22.93;73.60
59116;BME280;53564;51.930;4.640;2022-08-19T12:27:57;101562.72;;;23.23;75.10
59116;BME280;53564;51.930;4.640;2022-08-19T12:30:22;101566.28;;;23.37;70.21
59116;BME280;53564;51.930;4.640;2022-08-19T12:32:47;101568.66;;;23.16;75.82
59116;BME280;53564;51.930;4.640;2022-08-19T12:35:13;101561.50;;;23.15;73.83
59116;BME280;53564;51.930;4.640;2022-08-19T12:37:39;101559.72;;;22.88;76.23
59116;BME280;53564;51.930;4.640;2022-08-19T12:40:10;101559.72;;;22.75;75.50
59116;BME280;53564;51.930;4.640;2022-08-19T12:42:37;101560.31;;;23.06;71.18
59116;BME280;53564;51.930;4.640;2022-08-19T12:45:03;101553.53;;;23.26;69.06
59116;BME280;53564;51.930;4.640;2022-08-19T12:47:28;101562.19;;;23.31;72.19
59116;BME280;53564;51.930;4.640;2022-08-19T12:49:53;101564.66;;;23.21;74.20
59116;BME280;53564;51.930;4.640;2022-08-19T12:52:19;101571.91;;;22.68;73.98
59116;BME280;53564;51.930;4.640;2022-08-19T12:54:46;101558.34;;;22.00;77.79